createdAt,value
2017-03-21T00:00:16.577Z,0
2017-03-21T00:01:16.555Z,0
2017-03-21T00:02:16.542Z,0
2017-03-21T00:03:16.523Z,0
2017-03-21T00:04:16.513Z,0
2017-03-21T00:05:16.176Z,0
2017-03-21T00:06:16.477Z,0
2017-03-21T00:07:16.177Z,0
2017-03-21T00:08:16.160Z,0
2017-03-21T00:09:16.421Z,0
2017-03-21T00:10:16.421Z,0
2017-03-21T00:11:16.416Z,0
2017-03-21T00:12:16.389Z,0
2017-03-21T00:13:16.385Z,0
2017-03-21T00:14:16.370Z,0
2017-03-21T00:15:16.363Z,0
2017-03-21T00:16:16.319Z,0
2017-03-21T00:17:16.312Z,0
2017-03-21T00:18:16.297Z,0
2017-03-21T00:19:16.270Z,0
2017-03-21T00:20:16.272Z,0
2017-03-21T00:21:15.943Z,0
2017-03-21T00:22:16.225Z,0
2017-03-21T00:23:16.217Z,0
2017-03-21T00:24:16.402Z,0
2017-03-21T00:25:15.881Z,0
2017-03-21T00:26:16.178Z,0
2017-03-21T00:27:16.152Z,0
2017-03-21T00:28:16.148Z,0
2017-03-21T00:29:15.817Z,0
2017-03-21T00:30:15.827Z,0
2017-03-21T00:31:15.798Z,0
2017-03-21T00:32:16.086Z,0
2017-03-21T00:33:16.068Z,0
2017-03-21T00:34:15.768Z,0
2017-03-21T00:35:15.737Z,0
2017-03-21T00:36:15.718Z,0
2017-03-21T00:37:16.017Z,0
2017-03-21T00:38:15.982Z,0
2017-03-21T00:39:15.974Z,0
2017-03-21T00:40:15.969Z,0
2017-03-21T00:41:15.659Z,0
2017-03-21T00:42:15.635Z,0
2017-03-21T00:43:15.303Z,0
2017-03-21T00:44:15.902Z,0
2017-03-21T00:45:15.893Z,0
2017-03-21T00:46:15.862Z,0
2017-03-21T00:47:15.870Z,0
2017-03-21T00:48:15.845Z,0
2017-03-21T00:49:15.836Z,0
2017-03-21T00:50:16.028Z,0
2017-03-21T00:51:15.807Z,0
2017-03-21T00:52:15.790Z,0
2017-03-21T00:53:30.371Z,0
2017-03-21T00:54:15.750Z,0
2017-03-21T00:55:15.644Z,0
2017-03-21T00:56:15.714Z,0
2017-03-21T00:57:15.407Z,0
2017-03-21T00:58:15.736Z,0
2017-03-21T00:59:15.572Z,0
2017-03-21T01:00:15.873Z,0
2017-03-21T01:01:15.649Z,0
2017-03-21T01:02:15.629Z,0
2017-03-21T01:03:15.599Z,0
2017-03-21T01:04:15.295Z,0
2017-03-21T01:05:15.584Z,0
2017-03-21T01:06:15.576Z,0
2017-03-21T01:07:15.546Z,0
2017-03-21T01:08:15.549Z,0
2017-03-21T01:09:15.530Z,0
2017-03-21T01:10:15.503Z,0
2017-03-21T01:11:15.489Z,0
2017-03-21T01:12:15.185Z,0
2017-03-21T01:13:15.469Z,0
2017-03-21T01:14:15.440Z,0
2017-03-21T01:15:15.445Z,0
2017-03-21T01:16:15.394Z,0
2017-03-21T01:17:15.410Z,0
2017-03-21T01:18:15.393Z,0
2017-03-21T01:19:15.387Z,0
2017-03-21T01:20:15.347Z,0
2017-03-21T01:21:15.340Z,0
2017-03-21T01:22:15.311Z,0
2017-03-21T01:23:15.317Z,0
2017-03-21T01:24:15.312Z,0
2017-03-21T01:25:28.923Z,0
2017-03-21T01:26:15.280Z,0
2017-03-21T01:27:15.235Z,0
2017-03-21T01:28:14.917Z,0
2017-03-21T01:29:14.934Z,0
2017-03-21T01:30:15.409Z,0
2017-03-21T01:31:15.187Z,0
2017-03-21T01:32:15.193Z,0
2017-03-21T01:33:15.151Z,0
2017-03-21T01:34:15.362Z,0
2017-03-21T01:35:15.337Z,0
2017-03-21T01:36:15.105Z,0
2017-03-21T01:37:15.078Z,0
2017-03-21T01:38:15.058Z,0
2017-03-21T01:39:15.063Z,0
2017-03-21T01:40:15.046Z,0
2017-03-21T01:41:15.033Z,0
2017-03-21T01:42:15.021Z,0
2017-03-21T01:43:14.980Z,0
2017-03-21T01:44:14.991Z,0
2017-03-21T01:45:14.954Z,0
2017-03-21T01:46:14.944Z,0
2017-03-21T01:47:14.933Z,0
2017-03-21T01:48:14.924Z,0
2017-03-21T01:49:14.912Z,0
2017-03-21T01:50:14.885Z,0
2017-03-21T01:51:14.895Z,0
2017-03-21T01:52:14.850Z,0
2017-03-21T01:53:14.892Z,0
2017-03-21T01:54:14.835Z,0
2017-03-21T01:55:14.507Z,0
2017-03-21T01:56:14.787Z,0
2017-03-21T01:57:14.788Z,0
2017-03-21T01:58:14.760Z,0
2017-03-21T01:59:14.750Z,0
2017-03-21T02:00:14.429Z,0
2017-03-21T02:01:14.769Z,0
2017-03-21T02:02:14.402Z,0
2017-03-21T02:03:14.679Z,0
2017-03-21T02:04:14.684Z,0
2017-03-21T02:05:14.544Z,0
2017-03-21T02:06:14.642Z,0
2017-03-21T02:07:14.623Z,0
2017-03-21T02:08:14.602Z,0
2017-03-21T02:09:14.812Z,0
2017-03-21T02:10:14.601Z,0
2017-03-21T02:11:14.565Z,0
2017-03-21T02:12:14.243Z,0
2017-03-21T02:13:14.241Z,0
2017-03-21T02:14:14.731Z,0
2017-03-21T02:15:14.202Z,0
2017-03-21T02:16:14.480Z,0
2017-03-21T02:17:14.488Z,0
2017-03-21T02:18:14.456Z,0
2017-03-21T02:19:14.464Z,0
2017-03-21T02:20:14.421Z,0
2017-03-21T02:21:14.415Z,0
2017-03-21T02:22:14.404Z,0
2017-03-21T02:23:14.395Z,0
2017-03-21T02:24:13.769Z,0
2017-03-21T02:25:14.370Z,0
2017-03-21T02:26:14.357Z,0
2017-03-21T02:27:14.332Z,0
2017-03-21T02:28:14.004Z,0
2017-03-21T02:29:14.296Z,0
2017-03-21T02:30:13.688Z,0
2017-03-21T02:31:14.259Z,0
2017-03-21T02:32:13.949Z,0
2017-03-21T02:33:13.940Z,0
2017-03-21T02:34:14.209Z,0
2017-03-21T02:35:14.215Z,0
2017-03-21T02:36:14.177Z,0
2017-03-21T02:37:14.190Z,0
2017-03-21T02:38:14.150Z,0
2017-03-21T02:39:14.346Z,0
2017-03-21T02:40:14.343Z,0
2017-03-21T02:41:14.126Z,0
2017-03-21T02:42:14.090Z,0
2017-03-21T02:43:14.091Z,0
2017-03-21T02:44:13.769Z,0
2017-03-21T02:45:13.735Z,0
2017-03-21T02:46:14.040Z,0
2017-03-21T02:47:14.012Z,0
2017-03-21T02:48:14.013Z,0
2017-03-21T02:49:13.985Z,0
2017-03-21T02:50:13.979Z,0
2017-03-21T02:51:13.943Z,0
2017-03-21T02:52:13.946Z,0
2017-03-21T02:53:13.922Z,0
2017-03-21T02:54:13.618Z,0
2017-03-21T02:55:13.890Z,0
2017-03-21T02:56:13.866Z,0
2017-03-21T02:57:13.884Z,0
2017-03-21T02:58:13.843Z,0
2017-03-21T02:59:13.828Z,0
2017-03-21T03:00:13.827Z,0
2017-03-21T03:01:13.787Z,0
2017-03-21T03:02:13.780Z,0
2017-03-21T03:03:13.774Z,0
2017-03-21T03:04:13.755Z,0
2017-03-21T03:05:13.745Z,0
2017-03-21T03:06:13.732Z,0
2017-03-21T03:07:13.416Z,0
2017-03-21T03:08:13.394Z,0
2017-03-21T03:09:13.384Z,0
2017-03-21T03:10:13.671Z,0
2017-03-21T03:11:13.669Z,0
2017-03-21T03:12:13.638Z,0
2017-03-21T03:13:13.637Z,0
2017-03-21T03:14:13.601Z,0
2017-03-21T03:15:13.617Z,0
2017-03-21T03:16:13.570Z,0
2017-03-21T03:17:13.569Z,0
2017-03-21T03:18:13.541Z,0
2017-03-21T03:19:13.601Z,0
2017-03-21T03:20:12.904Z,0
2017-03-21T03:21:13.514Z,0
2017-03-21T03:22:13.487Z,0
2017-03-21T03:23:13.473Z,0
2017-03-21T03:24:13.457Z,0
2017-03-21T03:25:13.464Z,0
2017-03-21T03:26:13.431Z,0
2017-03-21T03:27:13.413Z,0
2017-03-21T03:28:13.095Z,0
2017-03-21T03:29:13.390Z,0
2017-03-21T03:30:13.355Z,0
2017-03-21T03:31:13.353Z,0
2017-03-21T03:32:13.335Z,0
2017-03-21T03:33:13.338Z,0
2017-03-21T03:34:13.304Z,0
2017-03-21T03:35:13.277Z,0
2017-03-21T03:36:13.277Z,0
2017-03-21T03:37:13.272Z,0
2017-03-21T03:38:12.941Z,0
2017-03-21T03:39:13.223Z,0
2017-03-21T03:40:12.891Z,0
2017-03-21T03:41:13.171Z,0
2017-03-21T03:42:13.196Z,0
2017-03-21T03:43:13.165Z,0
2017-03-21T03:44:13.160Z,0
2017-03-21T03:45:12.820Z,0
2017-03-21T03:46:12.824Z,0
2017-03-21T03:47:12.783Z,0
2017-03-21T03:48:12.764Z,0
2017-03-21T03:49:13.074Z,0
2017-03-21T03:50:13.055Z,0
2017-03-21T03:51:13.021Z,0
2017-03-21T03:52:13.035Z,0
2017-03-21T03:53:13.005Z,0
2017-03-21T03:54:12.998Z,0
2017-03-21T03:55:12.969Z,0
2017-03-21T03:56:12.641Z,0
2017-03-21T03:57:12.937Z,0
2017-03-21T03:58:12.926Z,0
2017-03-21T03:59:12.909Z,0
2017-03-21T04:00:12.905Z,0
2017-03-21T04:01:12.853Z,0
2017-03-21T04:02:12.866Z,0
2017-03-21T04:03:12.844Z,0
2017-03-21T04:04:12.836Z,0
2017-03-21T04:05:12.524Z,0
2017-03-21T04:06:12.779Z,0
2017-03-21T04:07:12.779Z,0
2017-03-21T04:08:12.773Z,0
2017-03-21T04:09:12.744Z,0
2017-03-21T04:10:12.748Z,0
2017-03-21T04:11:12.720Z,0
2017-03-21T04:12:12.712Z,0
2017-03-21T04:13:12.680Z,0
2017-03-21T04:14:12.693Z,0
2017-03-21T04:15:12.663Z,0
2017-03-21T04:16:12.357Z,0
2017-03-21T04:17:12.620Z,0
2017-03-21T04:18:12.595Z,0
2017-03-21T04:19:12.608Z,0
2017-03-21T04:20:12.566Z,0
2017-03-21T04:21:12.567Z,0
2017-03-21T04:22:12.544Z,0
2017-03-21T04:23:12.229Z,0
2017-03-21T04:24:12.500Z,0
2017-03-21T04:25:12.481Z,0
2017-03-21T04:26:12.470Z,0
2017-03-21T04:27:12.471Z,0
2017-03-21T04:28:12.441Z,0
2017-03-21T04:29:12.448Z,0
2017-03-21T04:30:12.432Z,0
2017-03-21T04:31:12.374Z,0
2017-03-21T04:32:12.379Z,0
2017-03-21T04:33:12.369Z,0
2017-03-21T04:34:12.356Z,0
2017-03-21T04:35:12.323Z,0
2017-03-21T04:36:12.012Z,0
2017-03-21T04:37:12.319Z,0
2017-03-21T04:38:11.970Z,0
2017-03-21T04:39:12.252Z,0
2017-03-21T04:40:12.264Z,0
2017-03-21T04:41:11.934Z,0
2017-03-21T04:42:12.221Z,0
2017-03-21T04:43:12.213Z,0
2017-03-21T04:44:11.901Z,0
2017-03-21T04:45:12.177Z,0
2017-03-21T04:46:12.143Z,4
2017-03-21T04:47:12.151Z,4
2017-03-21T04:48:11.517Z,4
2017-03-21T04:49:12.115Z,4
2017-03-21T04:50:12.113Z,4
2017-03-21T04:51:11.758Z,8
2017-03-21T04:52:12.065Z,8
2017-03-21T04:53:12.062Z,8
2017-03-21T04:54:12.045Z,12
2017-03-21T04:55:12.009Z,12
2017-03-21T04:56:11.986Z,16
2017-03-21T04:57:11.986Z,16
2017-03-21T04:58:11.650Z,20
2017-03-21T04:59:11.942Z,28
2017-03-21T05:00:11.913Z,32
2017-03-21T05:01:11.906Z,40
2017-03-21T05:02:11.893Z,48
2017-03-21T05:03:11.890Z,60
2017-03-21T05:04:11.894Z,72
2017-03-21T05:05:11.545Z,88
2017-03-21T05:06:11.829Z,100
2017-03-21T05:07:11.840Z,116
2017-03-21T05:08:11.792Z,136
2017-03-21T05:09:11.794Z,156
2017-03-21T05:10:11.780Z,176
2017-03-21T05:11:11.730Z,204
2017-03-21T05:12:11.463Z,224
2017-03-21T05:13:11.735Z,252
2017-03-21T05:14:11.713Z,288
2017-03-21T05:15:11.694Z,316
2017-03-21T05:16:11.667Z,352
2017-03-21T05:17:11.651Z,388
2017-03-21T05:18:11.643Z,432
2017-03-21T05:19:11.628Z,476
2017-03-21T05:20:11.617Z,528
2017-03-21T05:21:11.601Z,588
2017-03-21T05:22:11.584Z,656
2017-03-21T05:23:11.566Z,728
2017-03-21T05:24:11.243Z,804
2017-03-21T05:25:11.534Z,892
2017-03-21T05:26:11.213Z,980
2017-03-21T05:27:11.512Z,1076
2017-03-21T05:28:11.493Z,1176
2017-03-21T05:29:11.495Z,1276
2017-03-21T05:30:11.159Z,1380
2017-03-21T05:31:11.131Z,1476
2017-03-21T05:32:11.427Z,1580
2017-03-21T05:33:11.117Z,1692
2017-03-21T05:34:11.392Z,1816
2017-03-21T05:35:11.392Z,1948
2017-03-21T05:36:11.065Z,2084
2017-03-21T05:37:11.352Z,2216
2017-03-21T05:38:11.333Z,2352
2017-03-21T05:39:11.331Z,2496
2017-03-21T05:40:11.298Z,2652
2017-03-21T05:41:11.278Z,2828
2017-03-21T05:42:11.267Z,3028
2017-03-21T05:43:11.280Z,3232
2017-03-21T05:44:11.235Z,3444
2017-03-21T05:45:11.228Z,3648
2017-03-21T05:46:10.915Z,3828
2017-03-21T05:47:10.889Z,3964
2017-03-21T05:48:11.203Z,4080
2017-03-21T05:49:11.162Z,4180
2017-03-21T05:50:11.156Z,4280
2017-03-21T05:51:11.120Z,4404
2017-03-21T05:52:11.122Z,4536
2017-03-21T05:53:11.087Z,4660
2017-03-21T05:54:11.084Z,4784
2017-03-21T05:55:11.069Z,4928
2017-03-21T05:56:11.072Z,5096
2017-03-21T05:57:11.046Z,5324
2017-03-21T05:58:11.023Z,5612
2017-03-21T05:59:11.019Z,5892
2017-03-21T06:00:11.010Z,6204
2017-03-21T06:01:10.977Z,6608
2017-03-21T06:02:10.959Z,6876
2017-03-21T06:03:10.960Z,6864
2017-03-21T06:04:10.942Z,6864
2017-03-21T06:05:10.618Z,6992
2017-03-21T06:06:10.898Z,7208
2017-03-21T06:07:10.878Z,7448
2017-03-21T06:08:10.877Z,7676
2017-03-21T06:09:10.870Z,7884
2017-03-21T06:10:10.843Z,8060
2017-03-21T06:11:10.829Z,8224
2017-03-21T06:12:10.812Z,8380
2017-03-21T06:13:10.810Z,8536
2017-03-21T06:14:10.793Z,8676
2017-03-21T06:15:10.776Z,8800
2017-03-21T06:16:10.440Z,8964
2017-03-21T06:17:10.734Z,9120
2017-03-21T06:18:10.434Z,9280
2017-03-21T06:19:10.739Z,9592
2017-03-21T06:20:10.086Z,10024
2017-03-21T06:21:10.368Z,10412
2017-03-21T06:22:10.679Z,11268
2017-03-21T06:23:10.346Z,12128
2017-03-21T06:24:10.620Z,12688
2017-03-21T06:25:10.609Z,13108
2017-03-21T06:26:10.608Z,13224
2017-03-21T06:27:10.587Z,13688
2017-03-21T06:28:10.272Z,14860
2017-03-21T06:29:10.557Z,15012
2017-03-21T06:30:10.565Z,14908
2017-03-21T06:31:10.519Z,15724
2017-03-21T06:32:10.545Z,16384
2017-03-21T06:33:10.505Z,16864
2017-03-21T06:34:10.501Z,19232
2017-03-21T06:35:10.469Z,20032
2017-03-21T06:36:10.140Z,19712
2017-03-21T06:37:10.457Z,19872
2017-03-21T06:38:10.135Z,21152
2017-03-21T06:39:10.416Z,23328
2017-03-21T06:40:09.780Z,25888
2017-03-21T06:41:10.402Z,26336
2017-03-21T06:42:10.062Z,26336
2017-03-21T06:43:10.364Z,25152
2017-03-21T06:44:10.325Z,25504
2017-03-21T06:45:10.334Z,28160
2017-03-21T06:46:10.315Z,30304
2017-03-21T06:47:10.314Z,30496
2017-03-21T06:48:10.311Z,30560
2017-03-21T06:49:10.286Z,30944
2017-03-21T06:50:10.250Z,29184
2017-03-21T06:51:10.239Z,31680
2017-03-21T06:52:10.230Z,31424
2017-03-21T06:53:10.209Z,30272
2017-03-21T06:54:10.208Z,31200
2017-03-21T06:55:10.198Z,32864
2017-03-21T07:00:56.450Z,32544
2017-03-21T07:01:56.436Z,31456
2017-03-21T07:02:56.415Z,27552
2017-03-21T07:03:56.412Z,27104
2017-03-21T07:04:56.596Z,31104
2017-03-21T07:05:56.372Z,33824
2017-03-21T07:06:56.357Z,34496
2017-03-21T07:07:56.371Z,37088
2017-03-21T07:08:56.342Z,38560
2017-03-21T07:09:56.354Z,39104
2017-03-21T07:10:56.321Z,43008
2017-03-21T07:11:56.343Z,43520
2017-03-21T07:12:56.283Z,44832
2017-03-21T07:13:56.296Z,50016
2017-03-21T07:14:55.951Z,47392
2017-03-21T07:15:55.943Z,46240
2017-03-21T07:16:56.249Z,51040
2017-03-21T07:17:56.224Z,55776
2017-03-21T07:18:56.216Z,53888
2017-03-21T07:19:56.193Z,55968
2017-03-21T07:20:56.192Z,57376
2017-03-21T07:21:56.172Z,56800
2017-03-21T07:22:56.156Z,55712
2017-03-21T07:23:56.153Z,51328
2017-03-21T07:24:56.148Z,46656
2017-03-21T07:25:56.120Z,46880
2017-03-21T07:26:56.001Z,44544
2017-03-21T07:27:56.082Z,43168
2017-03-21T07:28:56.106Z,44384
2017-03-21T07:29:56.082Z,45440
2017-03-21T07:30:56.075Z,45280
2017-03-21T07:31:56.046Z,43296
2017-03-21T07:32:56.088Z,44064
2017-03-21T07:33:55.750Z,45568
2017-03-21T07:34:56.020Z,47584
2017-03-21T07:35:55.989Z,48992
2017-03-21T07:37:10.619Z,46240
2017-03-21T07:37:56.216Z,43488
2017-03-21T07:38:55.974Z,40704
2017-03-21T07:39:55.974Z,40768
2017-03-21T07:40:55.646Z,44576
2017-03-21T07:41:55.857Z,46944
2017-03-21T07:43:09.345Z,48448
2017-03-21T07:43:55.919Z,51296
2017-03-21T07:44:55.904Z,50912
2017-03-21T07:45:55.897Z,48384
2017-03-21T07:46:55.881Z,46880
2017-03-21T07:47:55.876Z,47360
2017-03-21T07:48:55.586Z,47488
2017-03-21T07:49:55.837Z,49568
2017-03-21T07:50:55.864Z,49184
2017-03-21T07:51:55.531Z,52544
2017-03-21T07:52:55.834Z,51648
2017-03-21T07:53:55.813Z,47392
2017-03-21T07:54:55.811Z,45024
2017-03-21T07:55:55.782Z,41248
2017-03-21T07:56:55.763Z,38848
2017-03-21T07:57:55.783Z,39072
2017-03-21T07:58:55.763Z,37696
2017-03-21T07:59:55.758Z,37216
2017-03-21T08:00:55.730Z,37408
2017-03-21T08:01:55.724Z,36512
2017-03-21T08:02:55.711Z,37952
2017-03-21T08:03:55.416Z,38752
2017-03-21T08:04:55.688Z,37440
2017-03-21T08:05:55.668Z,40096
2017-03-21T08:06:55.669Z,41760
2017-03-21T08:07:55.660Z,41504
2017-03-21T08:08:55.857Z,35424
2017-03-21T08:09:55.641Z,38400
2017-03-21T08:10:55.625Z,39200
2017-03-21T08:11:55.618Z,42464
2017-03-21T08:12:55.602Z,42176
2017-03-21T08:13:55.795Z,37312
2017-03-21T08:14:55.756Z,41792
2017-03-21T08:15:55.564Z,41888
2017-03-21T08:16:55.542Z,39168
2017-03-21T08:17:55.527Z,36608
2017-03-21T08:18:55.524Z,38560
2017-03-21T08:19:55.495Z,40128
2017-03-21T08:20:55.484Z,39328
2017-03-21T08:21:55.462Z,40352
2017-03-21T08:22:55.461Z,43200
2017-03-21T08:23:55.150Z,47616
2017-03-21T08:24:55.437Z,51072
2017-03-21T08:25:55.465Z,49088
2017-03-21T08:26:55.420Z,47456
2017-03-21T08:27:55.385Z,44352
2017-03-21T08:28:55.416Z,42720
2017-03-21T08:29:55.378Z,47552
2017-03-21T08:30:55.356Z,47712
2017-03-21T08:31:55.344Z,47328
2017-03-21T08:32:55.325Z,48960
2017-03-21T08:33:55.311Z,48512
2017-03-21T08:34:55.280Z,45984
2017-03-21T08:35:55.282Z,46944
2017-03-21T08:36:55.276Z,41024
2017-03-21T08:37:55.264Z,43648
2017-03-21T08:38:55.236Z,42336
2017-03-21T08:39:54.914Z,37088
2017-03-21T08:40:55.203Z,39584
2017-03-21T08:41:55.195Z,39744
2017-03-21T08:42:55.177Z,41472
2017-03-21T08:43:54.864Z,43808
2017-03-21T08:44:55.043Z,45664
2017-03-21T08:45:55.144Z,55808
2017-03-21T08:46:55.116Z,48704
2017-03-21T08:47:55.100Z,50496
2017-03-21T08:48:55.099Z,60032
2017-03-21T08:49:55.284Z,65600
2017-03-21T08:50:54.974Z,51072
2017-03-21T08:51:54.752Z,51040
2017-03-21T08:52:55.044Z,64064
2017-03-21T08:53:55.037Z,61536
2017-03-21T08:54:55.234Z,59168
2017-03-21T08:55:55.219Z,60192
2017-03-21T08:56:54.976Z,55328
2017-03-21T08:57:54.970Z,53760
2017-03-21T08:58:54.966Z,50816
2017-03-21T08:59:54.971Z,53632
2017-03-21T09:00:54.923Z,64736
2017-03-21T09:01:54.914Z,74592
2017-03-21T09:02:54.920Z,68128
2017-03-21T09:03:54.896Z,65472
2017-03-21T09:04:54.869Z,66784
2017-03-21T09:05:54.883Z,70400
2017-03-21T09:09:26.659Z,80416
2017-03-21T09:09:54.805Z,84224
2017-03-21T09:10:54.802Z,91360
2017-03-21T09:11:54.516Z,91232
2017-03-21T09:12:54.801Z,87072
2017-03-21T09:13:54.777Z,83520
2017-03-21T09:14:54.453Z,74528
2017-03-21T09:15:54.439Z,77568
2017-03-21T09:16:54.430Z,79488
2017-03-21T09:17:54.703Z,78176
2017-03-21T09:18:54.699Z,79808
2017-03-21T09:19:54.395Z,78752
2017-03-21T09:20:54.368Z,92800
2017-03-21T09:21:54.649Z,91680
2017-03-21T09:22:54.037Z,85152
2017-03-21T09:23:54.341Z,78944
2017-03-21T09:24:54.326Z,76288
2017-03-21T09:25:54.309Z,77728
2017-03-21T09:26:54.315Z,85440
2017-03-21T09:27:54.284Z,61024
2017-03-21T09:28:54.562Z,92768
2017-03-21T09:29:54.277Z,97696
2017-03-21T09:30:54.556Z,97280
2017-03-21T09:31:54.231Z,93504
2017-03-21T09:32:54.547Z,90464
2017-03-21T09:33:54.512Z,90848
2017-03-21T09:34:54.488Z,79872
2017-03-21T09:35:54.187Z,65088
2017-03-21T09:36:54.479Z,69216
2017-03-21T09:37:54.159Z,64640
2017-03-21T09:38:54.453Z,66144
2017-03-21T09:39:54.434Z,60288
2017-03-21T09:40:54.429Z,55456
2017-03-21T09:41:54.417Z,54272
2017-03-21T09:42:54.423Z,58688
2017-03-21T09:43:54.123Z,64288
2017-03-21T09:44:54.084Z,68608
2017-03-21T09:45:54.390Z,70432
2017-03-21T09:46:54.359Z,58080
2017-03-21T09:47:54.358Z,65952
2017-03-21T09:48:54.349Z,63648
2017-03-21T09:49:54.322Z,55264
2017-03-21T09:50:54.319Z,45760
2017-03-21T09:51:54.005Z,55584
2017-03-21T09:52:54.301Z,65088
2017-03-21T09:53:53.966Z,81632
2017-03-21T09:54:53.967Z,73344
2017-03-21T09:55:53.941Z,81408
2017-03-21T09:56:53.923Z,79552
2017-03-21T09:57:54.126Z,70080
2017-03-21T09:58:54.229Z,81792
2017-03-21T09:59:54.218Z,85056
2017-03-21T10:00:53.893Z,86528
2017-03-21T10:01:54.385Z,99872
2017-03-21T10:02:54.381Z,97984
2017-03-21T10:03:54.375Z,99936
2017-03-21T10:04:54.172Z,104768
2017-03-21T10:05:54.159Z,94560
2017-03-21T10:06:53.827Z,92768
2017-03-21T10:07:54.134Z,75904
2017-03-21T10:08:54.118Z,84704
2017-03-21T10:09:54.098Z,82976
2017-03-21T10:10:54.112Z,74080
2017-03-21T10:11:53.769Z,70240
2017-03-21T10:12:54.074Z,66112
2017-03-21T10:13:54.073Z,49312
2017-03-21T10:14:54.066Z,76512
2017-03-21T10:15:54.094Z,93760
2017-03-21T10:16:54.038Z,87808
2017-03-21T10:17:54.024Z,86048
2017-03-21T10:18:54.036Z,71072
2017-03-21T10:19:54.021Z,59808
2017-03-21T10:20:54.024Z,76160
2017-03-21T10:21:53.720Z,89568
2017-03-21T10:22:54.002Z,88064
2017-03-21T10:23:53.999Z,69664
2017-03-21T10:24:54.003Z,70208
2017-03-21T10:25:53.965Z,75488
2017-03-21T10:26:53.961Z,93792
2017-03-21T10:27:53.971Z,110304
2017-03-21T10:28:53.960Z,94656
2017-03-21T10:29:53.955Z,81056
2017-03-21T10:30:53.963Z,77472
2017-03-21T10:31:53.644Z,82880
2017-03-21T10:32:53.946Z,96960
2017-03-21T10:33:53.918Z,85856
2017-03-21T10:34:53.931Z,73888
2017-03-21T10:35:53.942Z,62560
2017-03-21T10:36:53.919Z,59392
2017-03-21T10:37:53.936Z,63552
2017-03-21T10:38:53.913Z,59456
2017-03-21T10:39:53.610Z,57504
2017-03-21T10:40:53.898Z,55264
2017-03-21T10:41:53.886Z,51840
2017-03-21T10:42:53.889Z,48832
2017-03-21T10:43:53.883Z,51488
2017-03-21T10:44:53.877Z,53536
2017-03-21T10:45:53.867Z,57280
2017-03-21T10:46:53.884Z,57824
2017-03-21T10:47:53.851Z,58432
2017-03-21T10:48:53.856Z,64448
2017-03-21T10:49:53.556Z,64992
2017-03-21T10:50:53.856Z,59168
2017-03-21T10:51:53.854Z,60064
2017-03-21T10:52:53.533Z,55648
2017-03-21T10:53:53.821Z,65120
2017-03-21T10:54:53.830Z,68320
2017-03-21T10:55:53.521Z,78976
2017-03-21T10:56:53.826Z,75424
2017-03-21T10:57:53.812Z,54176
2017-03-21T10:58:53.798Z,49248
2017-03-21T10:59:53.807Z,48832
2017-03-21T11:00:53.792Z,50272
2017-03-21T11:01:53.783Z,52096
2017-03-21T11:02:53.777Z,52512
2017-03-21T11:03:53.777Z,54944
2017-03-21T11:04:53.487Z,54528
2017-03-21T11:05:53.769Z,54176
2017-03-21T11:06:53.466Z,53792
2017-03-21T11:07:53.434Z,53632
2017-03-21T11:08:53.430Z,53568
2017-03-21T11:09:53.727Z,55808
2017-03-21T11:10:53.709Z,63520
2017-03-21T11:11:53.454Z,69248
2017-03-21T11:12:53.707Z,68416
2017-03-21T11:13:53.723Z,64416
2017-03-21T11:14:53.716Z,60576
2017-03-21T11:15:53.694Z,61536
2017-03-21T11:16:53.681Z,66784
2017-03-21T11:17:53.671Z,76352
2017-03-21T11:18:53.724Z,70112
2017-03-21T11:19:53.681Z,73408
2017-03-21T11:20:53.669Z,70592
2017-03-21T11:21:53.364Z,70816
2017-03-21T11:22:53.637Z,76032
2017-03-21T11:23:53.650Z,83712
2017-03-21T11:24:53.624Z,82144
2017-03-21T11:25:53.641Z,92960
2017-03-21T11:26:53.313Z,84992
2017-03-21T11:27:53.602Z,64064
2017-03-21T11:28:53.588Z,55744
2017-03-21T11:29:53.604Z,65440
2017-03-21T11:30:53.583Z,73056
2017-03-21T11:31:53.577Z,74080
2017-03-21T11:32:53.263Z,69760
2017-03-21T11:33:53.567Z,72224
2017-03-21T11:34:53.572Z,78880
2017-03-21T11:35:53.558Z,81504
2017-03-21T11:36:53.532Z,71840
2017-03-21T11:37:53.231Z,65248
2017-03-21T11:38:53.521Z,59744
2017-03-21T11:39:53.514Z,62304
2017-03-21T11:40:53.503Z,70848
2017-03-21T11:41:53.200Z,73824
2017-03-21T11:42:53.504Z,61216
2017-03-21T11:43:53.198Z,56224
2017-03-21T11:44:53.493Z,62720
2017-03-21T11:45:53.186Z,63744
2017-03-21T11:46:53.157Z,60192
2017-03-21T11:47:53.168Z,69472
2017-03-21T11:48:53.148Z,85664
2017-03-21T11:49:53.161Z,79072
2017-03-21T11:50:53.137Z,73760
2017-03-21T11:51:53.153Z,77152
2017-03-21T11:52:53.437Z,89440
2017-03-21T11:53:53.124Z,92320
2017-03-21T11:54:53.450Z,116224
2017-03-21T11:55:53.393Z,113888
2017-03-21T11:56:53.399Z,91040
2017-03-21T11:57:53.092Z,73792
2017-03-21T11:58:53.091Z,76480
2017-03-21T11:59:53.066Z,82592
2017-03-21T12:00:53.371Z,87648
2017-03-21T12:01:53.385Z,84864
2017-03-21T12:02:53.071Z,90400
2017-03-21T12:03:53.340Z,89248
2017-03-21T12:04:53.047Z,87168
2017-03-21T12:05:53.317Z,87968
2017-03-21T12:06:53.340Z,95264
2017-03-21T12:07:53.317Z,88064
2017-03-21T12:08:53.317Z,90752
2017-03-21T12:09:53.302Z,90048
2017-03-21T12:10:53.292Z,70912
2017-03-21T12:11:53.293Z,97120
2017-03-21T12:12:53.269Z,96576
2017-03-21T12:13:53.272Z,105952
2017-03-21T12:14:53.263Z,103232
2017-03-21T12:15:53.063Z,91744
2017-03-21T12:16:53.257Z,76736
2017-03-21T12:17:53.240Z,67616
2017-03-21T12:18:52.938Z,89088
2017-03-21T12:19:53.243Z,82656
2017-03-21T12:20:53.236Z,90752
2017-03-21T12:21:53.226Z,92864
2017-03-21T12:22:53.226Z,90432
2017-03-21T12:23:53.215Z,87712
2017-03-21T12:24:53.209Z,92224
2017-03-21T12:25:53.176Z,90720
2017-03-21T12:26:53.181Z,90336
2017-03-21T12:27:53.194Z,92192
2017-03-21T12:28:52.885Z,89120
2017-03-21T12:29:53.173Z,86336
2017-03-21T12:30:53.150Z,85568
2017-03-21T12:31:53.155Z,78336
2017-03-21T12:32:53.159Z,81504
2017-03-21T12:33:53.142Z,80896
2017-03-21T12:34:52.875Z,84000
2017-03-21T12:35:53.137Z,85792
2017-03-21T12:36:53.127Z,90432
2017-03-21T12:37:53.119Z,87392
2017-03-21T12:38:53.093Z,87328
2017-03-21T12:39:53.099Z,86496
2017-03-21T12:40:53.095Z,87328
2017-03-21T12:41:53.086Z,88832
2017-03-21T12:42:53.089Z,86048
2017-03-21T12:43:53.065Z,90912
2017-03-21T12:44:52.761Z,84576
2017-03-21T12:45:52.462Z,84960
2017-03-21T12:46:53.096Z,81152
2017-03-21T12:47:52.733Z,82816
2017-03-21T12:48:53.048Z,84160
2017-03-21T12:49:53.036Z,86688
2017-03-21T12:50:53.029Z,94400
2017-03-21T12:51:53.023Z,105440
2017-03-21T12:52:53.023Z,107584
2017-03-21T12:53:53.012Z,90048
2017-03-21T12:54:52.438Z,84960
2017-03-21T12:55:52.997Z,84544
2017-03-21T12:56:52.983Z,84448
2017-03-21T12:57:52.975Z,77504
2017-03-21T12:58:52.960Z,81824
2017-03-21T13:06:21.148Z,60960
2017-03-21T13:07:21.440Z,46656
2017-03-21T13:08:21.442Z,68128
2017-03-21T13:09:21.431Z,67776
2017-03-21T13:10:21.420Z,67904
2017-03-21T13:11:21.419Z,71488
2017-03-21T13:12:21.420Z,73440
2017-03-21T13:13:21.407Z,45792
2017-03-21T13:14:21.106Z,38080
2017-03-21T13:15:21.398Z,69984
2017-03-21T13:16:21.391Z,63488
2017-03-21T13:17:21.388Z,43232
2017-03-21T13:18:21.382Z,66240
2017-03-21T13:19:21.386Z,67520
2017-03-21T13:20:21.367Z,50688
2017-03-21T13:21:21.058Z,75040
2017-03-21T13:22:21.365Z,75264
2017-03-21T13:23:21.359Z,67328
2017-03-21T13:24:21.347Z,73696
2017-03-21T13:25:21.349Z,71200
2017-03-21T13:26:21.353Z,65376
2017-03-21T13:27:21.333Z,67040
2017-03-21T13:28:21.332Z,67072
2017-03-21T13:29:21.328Z,67296
2017-03-21T13:30:21.326Z,71232
2017-03-21T13:31:21.313Z,73760
2017-03-21T13:32:21.319Z,70240
2017-03-21T13:33:21.315Z,42624
2017-03-21T13:34:21.306Z,56608
2017-03-21T13:35:21.296Z,47808
2017-03-21T13:36:21.290Z,43456
2017-03-21T13:37:21.290Z,47808
2017-03-21T13:38:20.985Z,55328
2017-03-21T13:39:20.976Z,67712
2017-03-21T13:40:21.274Z,55136
2017-03-21T13:41:21.285Z,51168
2017-03-21T13:42:21.289Z,55488
2017-03-21T13:43:20.955Z,61440
2017-03-21T13:44:21.262Z,46368
2017-03-21T13:45:20.946Z,40320
2017-03-21T13:46:20.941Z,45824
2017-03-21T13:47:20.933Z,47456